createdAt,value
2022-12-19T00:01:06.801Z,1.91
2022-12-19T00:03:36.523Z,1.91
2022-12-19T00:06:05.339Z,2.12
2022-12-19T00:08:34.641Z,2.22
2022-12-19T00:11:03.660Z,2.18
2022-12-19T00:13:40.124Z,2.24
2022-12-19T00:16:11.823Z,1.98
2022-12-19T00:18:42.382Z,2.00
2022-12-19T00:21:12.949Z,1.92
2022-12-19T00:23:41.367Z,1.76
2022-12-19T00:26:11.963Z,1.71
2022-12-19T00:28:39.993Z,1.67
2022-12-19T00:31:08.303Z,1.56
2022-12-19T00:33:36.436Z,1.45
2022-12-19T00:36:12.544Z,1.26
2022-12-19T00:38:43.156Z,1.58
2022-12-19T00:41:13.096Z,1.71
2022-12-19T00:43:41.261Z,1.48
2022-12-19T00:46:11.022Z,1.36
2022-12-19T00:48:39.220Z,1.31
2022-12-19T00:51:12.550Z,1.41
2022-12-19T00:53:40.850Z,1.30
2022-12-19T00:56:17.157Z,1.33
2022-12-19T00:58:47.314Z,1.30
2022-12-19T01:01:17.861Z,1.21
2022-12-19T01:04:18.769Z,1.33
2022-12-19T01:06:36.008Z,1.48
2022-12-19T01:09:04.262Z,1.35
2022-12-19T01:11:49.494Z,1.08
2022-12-19T01:14:22.560Z,1.13
2022-12-19T01:16:51.486Z,1.03
2022-12-19T01:19:19.609Z,1.01
2022-12-19T01:21:48.938Z,0.94
2022-12-19T01:24:18.937Z,0.82
2022-12-19T01:26:47.341Z,0.67
2022-12-19T01:29:15.272Z,0.64
2022-12-19T01:31:43.287Z,0.59
2022-12-19T01:34:11.347Z,0.77
2022-12-19T01:36:40.035Z,0.56
2022-12-19T01:39:09.748Z,0.58
2022-12-19T01:41:38.591Z,0.55
2022-12-19T01:44:08.270Z,0.62
2022-12-19T01:46:38.340Z,0.66
2022-12-19T01:49:11.993Z,0.60
2022-12-19T01:51:45.156Z,0.61
2022-12-19T01:54:18.742Z,0.52
2022-12-19T01:56:51.277Z,0.59
2022-12-19T01:59:22.015Z,0.71
2022-12-19T02:01:56.544Z,0.66
2022-12-19T02:04:25.307Z,0.76
2022-12-19T02:06:55.094Z,0.65
2022-12-19T02:09:24.412Z,0.61
2022-12-19T02:11:53.044Z,0.64
2022-12-19T02:14:21.589Z,0.51
2022-12-19T02:16:58.037Z,0.31
2022-12-19T02:20:06.865Z,0.31
2022-12-19T02:22:51.143Z,0.50
2022-12-19T02:25:44.167Z,0.39
2022-12-19T02:28:36.377Z,0.33
2022-12-19T02:31:17.459Z,0.12
2022-12-19T02:33:51.353Z,0.38
2022-12-19T02:36:27.594Z,0.13
2022-12-19T02:39:00.640Z,0.15
2022-12-19T02:41:43.337Z,0.17
2022-12-19T02:44:14.346Z,0.27
2022-12-19T02:46:45.838Z,0.26
2022-12-19T02:49:22.445Z,-0.02
2022-12-19T02:51:59.183Z,0.05
2022-12-19T02:54:27.144Z,-0.02
2022-12-19T02:57:02.058Z,0.11
2022-12-19T02:59:43.590Z,-0.11
2022-12-19T03:02:25.491Z,-0.11
2022-12-19T03:05:00.724Z,-0.04
2022-12-19T03:07:36.734Z,-0.22
2022-12-19T03:10:16.612Z,-0.35
2022-12-19T03:12:50.496Z,-0.50
2022-12-19T03:15:19.892Z,-0.42
2022-12-19T03:17:50.103Z,-0.39
2022-12-19T03:20:26.459Z,-0.50
2022-12-19T03:22:54.554Z,-0.26
2022-12-19T03:25:24.364Z,-0.10
2022-12-19T03:27:54.924Z,-0.03
2022-12-19T03:30:23.148Z,-0.01
2022-12-19T03:32:54.158Z,-0.13
2022-12-19T03:35:24.344Z,-0.26
2022-12-19T03:37:54.393Z,-0.33
2022-12-19T03:40:25.938Z,-0.46
2022-12-19T03:43:09.668Z,-0.25
2022-12-19T03:45:48.371Z,-0.07
2022-12-19T03:48:23.708Z,-0.06
2022-12-19T03:51:00.612Z,-0.16
2022-12-19T03:53:38.207Z,-0.24
2022-12-19T03:56:14.020Z,-0.33
2022-12-19T03:58:48.014Z,-0.53
2022-12-19T04:01:16.556Z,-0.40
2022-12-19T04:03:46.255Z,-0.46
2022-12-19T04:06:16.150Z,-0.26
2022-12-19T04:08:45.100Z,-0.27
2022-12-19T04:11:19.690Z,-0.60
2022-12-19T04:13:53.370Z,-0.66
2022-12-19T04:16:28.925Z,-0.63
2022-12-19T04:19:04.574Z,-0.71
2022-12-19T04:21:36.140Z,-0.76
2022-12-19T04:24:11.282Z,-0.65
2022-12-19T04:26:41.722Z,-0.66
2022-12-19T04:29:13.207Z,-0.65
2022-12-19T04:31:41.562Z,-0.73
2022-12-19T04:34:10.934Z,-0.90
2022-12-19T04:36:39.021Z,-0.67
2022-12-19T04:39:06.997Z,-0.97
2022-12-19T04:41:34.908Z,-0.67
2022-12-19T04:44:02.838Z,-0.88
2022-12-19T04:46:30.825Z,-0.84
2022-12-19T04:48:58.785Z,-0.88
2022-12-19T04:51:28.061Z,-0.88
2022-12-19T04:53:56.029Z,-0.77
2022-12-19T04:56:23.992Z,-0.91
2022-12-19T04:58:57.694Z,-1.04
2022-12-19T05:01:25.804Z,-1.15
2022-12-19T05:03:56.625Z,-1.02
2022-12-19T05:06:28.034Z,-1.00
2022-12-19T05:08:56.219Z,-1.17
2022-12-19T05:11:24.187Z,-1.21
2022-12-19T05:13:52.121Z,-1.20
2022-12-19T05:16:20.535Z,-1.06
2022-12-19T05:18:48.525Z,-1.00
2022-12-19T05:21:16.505Z,-1.24
2022-12-19T05:23:45.814Z,-1.22
2022-12-19T05:26:14.048Z,-1.36
2022-12-19T05:28:42.412Z,-1.25
2022-12-19T05:31:12.698Z,-1.38
2022-12-19T05:33:41.534Z,-1.19
2022-12-19T05:36:10.606Z,-1.21
2022-12-19T05:38:39.036Z,-1.16
2022-12-19T05:41:17.635Z,-1.22
2022-12-19T05:43:46.431Z,-1.47
2022-12-19T05:46:14.394Z,-1.24
2022-12-19T05:48:42.536Z,-1.09
2022-12-19T05:51:10.806Z,-1.03
2022-12-19T05:53:39.191Z,-1.40
2022-12-19T05:56:08.876Z,-1.32
2022-12-19T05:58:39.179Z,-1.41
2022-12-19T06:01:09.338Z,-1.38
2022-12-19T06:03:37.667Z,-1.44
2022-12-19T06:06:06.724Z,-1.47
2022-12-19T06:08:35.336Z,-1.30
2022-12-19T06:11:05.432Z,-1.06
2022-12-19T06:13:33.747Z,-1.06
2022-12-19T06:16:04.823Z,-1.03
2022-12-19T06:18:33.271Z,-1.13
2022-12-19T06:21:02.504Z,-1.14
2022-12-19T06:23:31.694Z,-1.16
2022-12-19T06:26:00.413Z,-1.33
2022-12-19T06:28:29.904Z,-1.26
2022-12-19T06:30:58.236Z,-1.30
2022-12-19T06:33:28.818Z,-1.06
2022-12-19T06:35:59.844Z,-0.89
2022-12-19T06:38:28.620Z,-0.93
2022-12-19T06:41:14.476Z,-1.22
2022-12-19T06:43:42.412Z,-1.23
2022-12-19T06:46:10.896Z,-1.08
2022-12-19T06:48:40.378Z,-1.11
2022-12-19T06:51:08.519Z,-0.99
2022-12-19T06:53:36.570Z,-0.83
2022-12-19T06:56:05.515Z,-0.92
2022-12-19T06:58:34.899Z,-1.05
2022-12-19T07:01:03.034Z,-0.71
2022-12-19T07:03:36.364Z,-0.76
2022-12-19T07:06:06.477Z,-0.53
2022-12-19T07:08:34.632Z,-0.76
2022-12-19T07:11:02.617Z,-1.02
2022-12-19T07:13:30.712Z,-1.03
2022-12-19T07:16:03.710Z,-0.83
2022-12-19T07:18:35.327Z,-0.91
2022-12-19T07:21:03.803Z,-0.83
2022-12-19T07:23:33.438Z,-0.85
2022-12-19T07:26:01.597Z,-0.67
2022-12-19T07:28:29.586Z,-0.44
2022-12-19T07:30:57.534Z,-0.36
2022-12-19T07:33:25.452Z,-0.46
2022-12-19T07:35:53.469Z,-0.38
2022-12-19T07:38:21.450Z,-0.31
2022-12-19T07:40:50.784Z,-0.29
2022-12-19T07:43:18.753Z,-0.61
2022-12-19T07:45:46.697Z,-0.51
2022-12-19T07:48:14.730Z,-0.53
2022-12-19T07:50:42.730Z,-0.58
2022-12-19T07:53:10.641Z,-0.49
2022-12-19T07:55:38.559Z,-0.49
2022-12-19T07:58:09.569Z,-0.66
2022-12-19T08:00:37.516Z,-0.71
2022-12-19T08:03:05.518Z,-0.78
2022-12-19T08:05:35.972Z,-0.77
2022-12-19T08:08:05.022Z,-0.90
2022-12-19T08:10:32.960Z,-0.88
2022-12-19T08:13:00.882Z,-0.66
2022-12-19T08:15:30.334Z,-0.51
2022-12-19T08:17:58.317Z,-0.45
2022-12-19T08:20:26.297Z,-0.12
2022-12-19T08:22:54.235Z,-0.17
2022-12-19T08:25:22.151Z,0.11
2022-12-19T08:27:50.118Z,0.10
2022-12-19T08:30:19.221Z,0.03
2022-12-19T08:32:48.573Z,-0.07
2022-12-19T08:35:16.709Z,0.30
2022-12-19T08:37:44.685Z,0.31
2022-12-19T08:40:13.676Z,0.47
2022-12-19T08:42:41.898Z,0.51
2022-12-19T08:45:10.726Z,0.80
2022-12-19T08:47:38.692Z,0.80
2022-12-19T08:50:09.335Z,0.96
2022-12-19T08:52:37.295Z,0.90
2022-12-19T08:55:05.951Z,0.71
2022-12-19T08:57:33.878Z,0.73
2022-12-19T09:00:01.811Z,0.87
2022-12-19T09:02:31.187Z,1.06
2022-12-19T09:06:05.047Z,1.02
2022-12-19T09:07:48.556Z,0.90
2022-12-19T09:10:16.692Z,0.92
2022-12-19T09:12:45.343Z,1.09
2022-12-19T09:15:13.716Z,1.20
2022-12-19T09:17:41.611Z,1.20
2022-12-19T09:20:11.459Z,1.06
2022-12-19T09:22:39.388Z,0.85
2022-12-19T09:25:09.826Z,1.09
2022-12-19T09:28:01.348Z,0.91
2022-12-19T09:30:26.463Z,1.37
2022-12-19T09:32:55.115Z,1.36
2022-12-19T09:35:28.450Z,1.12
2022-12-19T09:38:00.331Z,0.93
2022-12-19T09:40:31.920Z,1.10
2022-12-19T09:43:09.912Z,1.38
2022-12-19T09:45:56.647Z,1.44
2022-12-19T09:48:25.655Z,1.37
2022-12-19T09:51:09.560Z,1.50
2022-12-19T09:53:54.484Z,1.43
2022-12-19T09:56:28.112Z,1.51
2022-12-19T09:59:03.293Z,1.55
2022-12-19T10:01:38.921Z,1.65
2022-12-19T10:04:12.599Z,1.75
2022-12-19T10:07:12.892Z,1.69
2022-12-19T10:12:17.617Z,1.92
2022-12-19T10:12:50.807Z,2.07
2022-12-19T10:15:27.331Z,1.89
2022-12-19T10:18:25.686Z,1.93
2022-12-19T10:21:04.145Z,1.77
2022-12-19T10:23:51.448Z,1.87
2022-12-19T10:26:21.777Z,1.87
2022-12-19T10:29:10.237Z,1.84
2022-12-19T10:31:43.876Z,1.83
2022-12-19T10:34:19.890Z,1.88
2022-12-19T10:39:53.008Z,1.47
2022-12-19T10:42:31.513Z,1.40
2022-12-19T10:45:02.815Z,1.75
2022-12-19T10:47:31.184Z,1.96
2022-12-19T10:50:05.464Z,1.72
2022-12-19T10:52:52.283Z,1.53
2022-12-19T10:55:38.916Z,1.60
2022-12-19T10:58:21.539Z,1.87
2022-12-19T11:01:07.174Z,1.99
2022-12-19T11:03:36.114Z,2.09
2022-12-19T11:06:05.421Z,1.97
2022-12-19T11:08:34.598Z,1.78
2022-12-19T11:13:30.091Z,1.59
2022-12-19T11:19:28.584Z,1.76
2022-12-19T11:29:44.288Z,1.36
2022-12-19T11:29:45.691Z,1.33
2022-12-19T11:30:45.319Z,1.43
2022-12-19T11:30:45.723Z,1.49
2022-12-19T11:34:30.026Z,1.17
2022-12-19T11:37:02.469Z,1.39
2022-12-19T11:39:36.488Z,1.08
2022-12-19T11:42:12.577Z,1.04
2022-12-19T11:44:46.662Z,0.92
2022-12-19T11:47:28.387Z,1.02
2022-12-19T11:50:02.610Z,1.00
2022-12-19T11:55:37.572Z,0.81
2022-12-19T11:58:05.551Z,0.71
2022-12-19T12:00:34.945Z,0.61
2022-12-19T12:03:35.342Z,0.73
2022-12-19T12:06:13.246Z,0.87
2022-12-19T12:11:02.876Z,0.93
2022-12-19T12:22:32.925Z,0.82
2022-12-19T12:25:09.713Z,0.71
2022-12-19T12:31:10.131Z,0.98
2022-12-19T12:31:16.334Z,0.88
2022-12-19T12:31:52.359Z,0.95
2022-12-19T12:31:53.071Z,1.08
2022-12-19T12:31:57.249Z,1.32
2022-12-19T12:33:05.031Z,0.73
2022-12-19T12:39:02.206Z,0.70
2022-12-19T12:42:02.181Z,0.55
2022-12-19T12:44:35.454Z,0.85
2022-12-19T12:47:14.444Z,0.83
2022-12-19T12:49:46.667Z,1.01
2022-12-19T12:52:19.181Z,0.96
2022-12-19T12:54:50.291Z,0.95
2022-12-19T12:57:37.591Z,1.00
2022-12-19T13:00:24.951Z,0.96
2022-12-19T13:02:57.263Z,0.86
2022-12-19T13:05:39.621Z,1.00
2022-12-19T13:08:29.185Z,1.06
2022-12-19T13:11:00.306Z,1.13
2022-12-19T13:13:51.455Z,0.83
2022-12-19T13:16:52.985Z,0.79
2022-12-19T13:19:28.327Z,0.77
2022-12-19T13:22:18.690Z,0.55
2022-12-19T13:24:50.135Z,0.54
2022-12-19T13:27:38.796Z,0.68
2022-12-19T13:30:17.361Z,0.67
2022-12-19T13:33:09.445Z,0.58
2022-12-19T13:37:04.098Z,0.68
2022-12-19T13:39:57.475Z,0.78
2022-12-19T13:41:50.453Z,0.78
2022-12-19T13:44:23.064Z,0.47
2022-12-19T13:46:51.244Z,0.59
2022-12-19T13:49:25.089Z,0.61
2022-12-19T13:51:57.620Z,0.60
2022-12-19T13:54:29.181Z,0.50
2022-12-19T13:57:09.247Z,0.73
2022-12-19T13:59:54.385Z,0.64
2022-12-19T14:02:32.900Z,0.40
2022-12-19T14:05:32.834Z,0.31
2022-12-19T14:08:17.130Z,0.26
2022-12-19T14:11:40.735Z,0.26
2022-12-19T14:14:08.485Z,-0.08
2022-12-19T14:16:45.754Z,0.03
2022-12-19T14:19:24.901Z,0.09
2022-12-19T14:22:07.037Z,0.09
2022-12-19T14:24:41.882Z,0.13
2022-12-19T14:28:26.197Z,0.20
2022-12-19T14:30:30.752Z,0.30
2022-12-19T14:33:46.020Z,0.32
2022-12-19T14:36:09.964Z,0.26
2022-12-19T14:39:21.975Z,0.05
2022-12-19T14:42:01.464Z,-0.06
2022-12-19T14:52:35.170Z,0.07
2022-12-19T14:53:52.316Z,0.00
2022-12-19T14:54:08.150Z,0.04
2022-12-19T14:54:22.086Z,-0.04
2022-12-19T14:59:03.012Z,0.23
2022-12-19T15:01:33.405Z,0.16
2022-12-19T15:04:51.294Z,0.19
2022-12-19T15:07:06.945Z,0.17
2022-12-19T15:11:04.092Z,0.19
2022-12-19T15:14:51.282Z,0.30
2022-12-19T15:16:03.803Z,0.40
2022-12-19T15:18:41.156Z,0.45
2022-12-19T15:21:12.607Z,0.49
2022-12-19T15:23:42.226Z,0.46
2022-12-19T15:26:15.434Z,0.49
2022-12-19T15:28:44.838Z,0.47
2022-12-19T15:31:24.492Z,0.41
2022-12-19T15:34:33.622Z,0.20
2022-12-19T15:36:40.476Z,0.27
2022-12-19T15:39:09.832Z,0.30
2022-12-19T15:41:37.946Z,0.35
2022-12-19T15:44:09.772Z,0.16
2022-12-19T15:46:41.379Z,0.18
2022-12-19T15:49:16.226Z,0.06
2022-12-19T15:51:44.146Z,0.05
2022-12-19T15:57:01.406Z,-0.18
2022-12-19T15:59:38.087Z,-0.29
2022-12-19T16:02:16.873Z,-0.29
2022-12-19T16:04:45.595Z,-0.60
2022-12-19T16:07:16.925Z,-0.55
2022-12-19T16:09:46.834Z,-0.61
2022-12-19T16:12:17.042Z,-0.56
2022-12-19T16:14:45.330Z,-0.48
2022-12-19T16:17:22.532Z,-0.54
2022-12-19T16:19:50.733Z,-0.61
2022-12-19T16:22:21.178Z,-0.56
2022-12-19T16:24:50.698Z,-0.56
2022-12-19T16:27:25.354Z,-0.51
2022-12-19T16:29:54.426Z,-0.56
2022-12-19T16:32:24.508Z,-0.65
2022-12-19T16:34:53.522Z,-0.58
2022-12-19T16:37:23.568Z,-0.44
2022-12-19T16:39:56.630Z,-0.44
2022-12-19T16:42:24.546Z,-0.55
2022-12-19T16:44:53.646Z,-0.56
2022-12-19T16:47:21.661Z,-0.55
2022-12-19T16:49:50.030Z,-0.56
2022-12-19T16:52:17.987Z,-0.59
2022-12-19T16:54:45.983Z,-0.67
2022-12-19T16:57:21.210Z,-0.88
2022-12-19T16:59:49.733Z,-0.76
2022-12-19T17:02:43.312Z,-0.62
2022-12-19T17:05:20.010Z,-0.73
2022-12-19T17:07:49.208Z,-0.62
2022-12-19T17:10:24.225Z,-0.74
2022-12-19T17:12:55.746Z,-0.63
2022-12-19T17:15:27.599Z,-0.64
2022-12-19T17:17:58.296Z,-0.60
2022-12-19T17:20:29.668Z,-0.52
2022-12-19T17:22:57.864Z,-0.53
2022-12-19T17:25:28.140Z,-0.53
2022-12-19T17:27:57.714Z,-0.57
2022-12-19T17:30:25.772Z,-0.68
2022-12-19T17:32:56.178Z,-0.82
2022-12-19T17:35:28.261Z,-0.74
2022-12-19T17:37:58.164Z,-0.69
2022-12-19T17:40:28.212Z,-0.73
2022-12-19T17:42:58.614Z,-0.84
2022-12-19T17:45:27.664Z,-0.81
2022-12-19T17:48:02.236Z,-0.86
2022-12-19T17:50:33.315Z,-0.87
2022-12-19T17:53:01.260Z,-0.98
2022-12-19T17:55:30.880Z,-1.12
2022-12-19T17:58:00.543Z,-1.18
2022-12-19T18:00:31.234Z,-1.20
2022-12-19T18:03:04.973Z,-1.17
2022-12-19T18:05:36.015Z,-1.31
2022-12-19T18:08:04.849Z,-1.23
2022-12-19T18:10:33.522Z,-1.25
2022-12-19T18:13:02.830Z,-1.36
2022-12-19T18:15:30.781Z,-1.34
2022-12-19T18:17:58.911Z,-1.29
2022-12-19T18:20:31.870Z,-1.47
2022-12-19T18:23:01.310Z,-1.50
2022-12-19T18:25:31.009Z,-1.35
2022-12-19T18:27:59.553Z,-1.42
2022-12-19T18:30:28.956Z,-1.34
2022-12-19T18:32:59.437Z,-1.56
2022-12-19T18:35:34.847Z,-1.56
2022-12-19T18:38:05.995Z,-1.40
2022-12-19T18:40:34.331Z,-1.36
2022-12-19T18:43:02.349Z,-1.39
2022-12-19T18:45:37.305Z,-1.63
2022-12-19T18:48:08.569Z,-1.66
2022-12-19T18:50:36.527Z,-1.54
2022-12-19T18:53:10.922Z,-1.48
2022-12-19T18:55:38.687Z,-1.58
2022-12-19T18:58:06.760Z,-1.44
2022-12-19T19:00:36.676Z,-1.50
2022-12-19T19:03:07.103Z,-1.62
2022-12-19T19:05:37.158Z,-1.63
2022-12-19T19:08:15.901Z,-1.59
2022-12-19T19:10:44.472Z,-1.54
2022-12-19T19:13:12.414Z,-1.55
2022-12-19T19:15:47.137Z,-1.49
2022-12-19T19:18:16.006Z,-1.49
2022-12-19T19:20:46.057Z,-1.45
2022-12-19T19:23:15.334Z,-1.52
2022-12-19T19:25:43.542Z,-1.53
2022-12-19T19:28:11.469Z,-1.55
2022-12-19T19:30:42.269Z,-1.35
2022-12-19T19:33:14.175Z,-1.32
2022-12-19T19:35:45.226Z,-1.19
2022-12-19T19:38:14.528Z,-1.01
2022-12-19T19:40:43.441Z,-0.97
2022-12-19T19:43:11.415Z,-0.86
2022-12-19T19:45:43.132Z,-0.98
2022-12-19T19:48:13.027Z,-1.14
2022-12-19T19:50:41.162Z,-1.30
2022-12-19T19:53:09.267Z,-1.20
2022-12-19T19:55:37.177Z,-1.22
2022-12-19T19:58:05.334Z,-1.25
2022-12-19T20:00:33.250Z,-1.18
2022-12-19T20:03:06.331Z,-1.08
2022-12-19T20:05:37.881Z,-1.02
2022-12-19T20:08:06.574Z,-1.12
2022-12-19T20:10:34.498Z,-1.24
2022-12-19T20:13:02.450Z,-1.14
2022-12-19T20:15:30.799Z,-1.16
2022-12-19T20:17:59.852Z,-1.19
2022-12-19T20:20:27.786Z,-1.23
2022-12-19T20:22:57.092Z,-1.24
2022-12-19T20:25:25.035Z,-1.36
2022-12-19T20:27:52.953Z,-1.34
2022-12-19T20:30:20.939Z,-1.37
2022-12-19T20:32:48.864Z,-1.48
2022-12-19T20:35:17.301Z,-1.40
2022-12-19T20:37:45.261Z,-1.45
2022-12-19T20:40:14.772Z,-1.50
2022-12-19T20:42:42.700Z,-1.38
2022-12-19T20:45:11.091Z,-1.31
2022-12-19T20:47:39.030Z,-1.20
2022-12-19T20:50:08.190Z,-1.15
2022-12-19T20:52:36.196Z,-1.00
2022-12-19T20:55:04.117Z,-1.03
2022-12-19T20:57:33.429Z,-0.97
2022-12-19T21:00:01.352Z,-1.28
2022-12-19T21:02:41.030Z,-1.39
2022-12-19T21:05:17.555Z,-1.36
2022-12-19T21:07:45.627Z,-1.33
2022-12-19T21:10:14.004Z,-1.18
2022-12-19T21:12:47.583Z,-1.13
2022-12-19T21:15:16.281Z,-1.16
2022-12-19T21:17:44.240Z,-1.20
2022-12-19T21:20:13.321Z,-1.11
2022-12-19T21:22:41.268Z,-1.07
2022-12-19T21:25:10.030Z,-1.11
2022-12-19T21:27:37.979Z,-1.13
2022-12-19T21:30:08.879Z,-1.08
2022-12-19T21:32:36.848Z,-0.89
2022-12-19T21:35:05.160Z,-0.70
2022-12-19T21:37:37.055Z,-0.68
2022-12-19T21:40:09.879Z,-0.68
2022-12-19T21:42:37.802Z,-0.66
2022-12-19T21:45:08.085Z,-0.78
2022-12-19T21:47:39.374Z,-0.92
2022-12-19T21:50:08.794Z,-1.02
2022-12-19T21:52:36.764Z,-0.91
2022-12-19T21:55:05.068Z,-0.82
2022-12-19T21:57:33.005Z,-0.82
2022-12-19T22:00:00.928Z,-0.83
2022-12-19T22:02:30.327Z,-0.73
2022-12-19T22:04:58.335Z,-0.70
2022-12-19T22:07:26.299Z,-0.76
2022-12-19T22:09:54.263Z,-0.67
2022-12-19T22:12:22.353Z,-0.84
2022-12-19T22:14:50.421Z,-0.79
2022-12-19T22:17:18.367Z,-0.75
2022-12-19T22:19:47.810Z,-0.65
2022-12-19T22:22:15.737Z,-0.68
2022-12-19T22:24:43.658Z,-0.62
2022-12-19T22:27:11.572Z,-0.60
2022-12-19T22:29:39.742Z,-0.55
2022-12-19T22:32:07.720Z,-0.53
2022-12-19T22:34:35.743Z,-0.81
2022-12-19T22:37:05.124Z,-0.74
2022-12-19T22:39:33.093Z,-0.90
2022-12-19T22:42:01.031Z,-0.70
2022-12-19T22:44:28.979Z,-0.67
2022-12-19T22:46:56.938Z,-0.76
2022-12-19T22:49:24.847Z,-0.55
2022-12-19T22:51:52.768Z,-0.52
2022-12-19T22:54:22.172Z,-0.58
2022-12-19T22:56:51.416Z,-0.81
2022-12-19T22:59:19.323Z,-0.78
2022-12-19T23:01:47.343Z,-0.66
2022-12-19T23:04:17.609Z,-0.77
2022-12-19T23:06:45.889Z,-0.76
2022-12-19T23:09:16.129Z,-0.70
2022-12-19T23:11:47.339Z,-0.78
2022-12-19T23:14:18.389Z,-0.80
2022-12-19T23:16:46.577Z,-0.76
2022-12-19T23:19:15.980Z,-0.90
2022-12-19T23:21:44.043Z,-0.87
2022-12-19T23:24:12.956Z,-0.80
2022-12-19T23:26:41.032Z,-0.75
2022-12-19T23:29:12.932Z,-0.70
2022-12-19T23:31:42.155Z,-0.75
2022-12-19T23:34:10.635Z,-0.60
2022-12-19T23:37:09.730Z,-0.80
2022-12-19T23:39:26.927Z,-0.90
2022-12-19T23:41:54.837Z,-0.63
2022-12-19T23:44:24.372Z,-0.62
2022-12-19T23:46:53.214Z,-0.62
2022-12-19T23:49:22.517Z,-0.68
2022-12-19T23:51:50.451Z,-0.53
2022-12-19T23:54:18.363Z,-0.45
2022-12-19T23:56:46.285Z,-0.54
2022-12-19T23:59:14.236Z,-0.48
